sensor_id;sensor_type;location;lat;lon;timestamp;pressure;altitude;pressure_sealevel;temperature;humidity
51123;BME280;37162;41.724;13.346;2022-08-07T00:00:05;96493.13;;;25.84;62.74
51123;BME280;37162;41.724;13.346;2022-08-07T00:02:31;96486.88;;;25.83;62.80
51123;BME280;37162;41.724;13.346;2022-08-07T00:04:56;96488.75;;;25.83;62.87
51123;BME280;37162;41.724;13.346;2022-08-07T00:07:21;96480.09;;;25.81;62.81
51123;BME280;37162;41.724;13.346;2022-08-07T00:09:47;96473.53;;;25.82;63.19
51123;BME280;37162;41.724;13.346;2022-08-07T00:12:12;96480.59;;;25.83;62.83
51123;BME280;37162;41.724;13.346;2022-08-07T00:14:38;96479.00;;;25.82;62.95
51123;BME280;37162;41.724;13.346;2022-08-07T00:17:03;96471.94;;;25.81;62.94
51123;BME280;37162;41.724;13.346;2022-08-07T00:19:30;96475.47;;;25.81;63.02
51123;BME280;37162;41.724;13.346;2022-08-07T00:21:55;96454.63;;;25.71;62.97
51123;BME280;37162;41.724;13.346;2022-08-07T00:24:21;96472.75;;;25.81;63.24
51123;BME280;37162;41.724;13.346;2022-08-07T00:26:46;96469.53;;;25.79;62.92
51123;BME280;37162;41.724;13.346;2022-08-07T00:29:12;96461.94;;;25.76;62.95
51123;BME280;37162;41.724;13.346;2022-08-07T00:31:37;96470.03;;;25.81;63.12
51123;BME280;37162;41.724;13.346;2022-08-07T00:34:02;96466.50;;;25.81;63.09
51123;BME280;37162;41.724;13.346;2022-08-07T00:36:28;96460.25;;;25.80;63.17
51123;BME280;37162;41.724;13.346;2022-08-07T00:38:53;96454.81;;;25.80;63.11
51123;BME280;37162;41.724;13.346;2022-08-07T00:41:25;96462.97;;;25.80;63.12
51123;BME280;37162;41.724;13.346;2022-08-07T00:43:50;96460.03;;;25.77;62.91
51123;BME280;37162;41.724;13.346;2022-08-07T00:46:16;96467.06;;;25.78;62.93
51123;BME280;37162;41.724;13.346;2022-08-07T00:48:41;96457.31;;;25.77;62.77
51123;BME280;37162;41.724;13.346;2022-08-07T00:51:07;96464.34;;;25.78;62.70
51123;BME280;37162;41.724;13.346;2022-08-07T00:53:32;96460.56;;;25.79;62.94
51123;BME280;37162;41.724;13.346;2022-08-07T00:55:58;96456.72;;;25.80;63.22
51123;BME280;37162;41.724;13.346;2022-08-07T00:58:23;96453.19;;;25.79;63.12
51123;BME280;37162;41.724;13.346;2022-08-07T01:00:49;96455.09;;;25.79;63.11
51123;BME280;37162;41.724;13.346;2022-08-07T01:03:16;96451.56;;;25.78;62.80
51123;BME280;37162;41.724;13.346;2022-08-07T01:05:43;96454.28;;;25.78;62.95
51123;BME280;37162;41.724;13.346;2022-08-07T01:08:09;96455.09;;;25.79;63.00
51123;BME280;37162;41.724;13.346;2022-08-07T01:10:35;96445.88;;;25.74;62.85
51123;BME280;37162;41.724;13.346;2022-08-07T01:13:00;96459.72;;;25.78;62.57
51123;BME280;37162;41.724;13.346;2022-08-07T01:15:26;96451.56;;;25.78;62.89
51123;BME280;37162;41.724;13.346;2022-08-07T01:17:52;96449.94;;;25.77;62.53
51123;BME280;37162;41.724;13.346;2022-08-07T01:20:21;96456.50;;;25.76;62.04
51123;BME280;37162;41.724;13.346;2022-08-07T01:22:46;96452.66;;;25.77;62.31
51123;BME280;37162;41.724;13.346;2022-08-07T01:25:12;96456.50;;;25.76;62.12
51123;BME280;37162;41.724;13.346;2022-08-07T01:27:38;96457.31;;;25.77;62.59
51123;BME280;37162;41.724;13.346;2022-08-07T01:30:04;96463.53;;;25.77;62.59
51123;BME280;37162;41.724;13.346;2022-08-07T01:32:30;96448.38;;;25.71;62.59
51123;BME280;37162;41.724;13.346;2022-08-07T01:34:56;96456.50;;;25.76;62.61
51123;BME280;37162;41.724;13.346;2022-08-07T01:37:22;96459.22;;;25.76;62.52
51123;BME280;37162;41.724;13.346;2022-08-07T01:39:47;96448.34;;;25.76;62.39
51123;BME280;37162;41.724;13.346;2022-08-07T01:42:13;96457.56;;;25.75;62.37
51123;BME280;37162;41.724;13.346;2022-08-07T01:44:40;96454.06;;;25.74;62.68
51123;BME280;37162;41.724;13.346;2022-08-07T01:47:07;96449.41;;;25.75;62.42
51123;BME280;37162;41.724;13.346;2022-08-07T01:49:32;96442.38;;;25.74;62.38
51123;BME280;37162;41.724;13.346;2022-08-07T01:52:00;96445.09;;;25.74;62.57
51123;BME280;37162;41.724;13.346;2022-08-07T01:54:28;96445.09;;;25.74;62.43
51123;BME280;37162;41.724;13.346;2022-08-07T01:57:16;96442.38;;;25.74;62.59
51123;BME280;37162;41.724;13.346;2022-08-07T01:59:49;96438.00;;;25.73;62.21
51123;BME280;37162;41.724;13.346;2022-08-07T02:02:39;96440.72;;;25.73;62.44
51123;BME280;37162;41.724;13.346;2022-08-07T02:05:27;96433.66;;;25.72;62.40
51123;BME280;37162;41.724;13.346;2022-08-07T02:07:57;96434.78;;;25.71;62.25
51123;BME280;37162;41.724;13.346;2022-08-07T02:10:25;96420.72;;;25.64;62.32
51123;BME280;37162;41.724;13.346;2022-08-07T02:12:55;96432.88;;;25.71;62.20
51123;BME280;37162;41.724;13.346;2022-08-07T02:15:23;96427.72;;;25.70;62.22
51123;BME280;37162;41.724;13.346;2022-08-07T02:17:52;96419.56;;;25.70;61.88
51123;BME280;37162;41.724;13.346;2022-08-07T02:20:19;96416.63;;;25.66;62.05
51123;BME280;37162;41.724;13.346;2022-08-07T02:22:45;96429.66;;;25.69;61.91
51123;BME280;37162;41.724;13.346;2022-08-07T02:25:13;96433.97;;;25.70;61.90
51123;BME280;37162;41.724;13.346;2022-08-07T02:27:40;96423.09;;;25.70;62.22
51123;BME280;37162;41.724;13.346;2022-08-07T02:30:07;96428.84;;;25.69;61.81
51123;BME280;37162;41.724;13.346;2022-08-07T02:32:33;96425.00;;;25.70;61.97
51123;BME280;37162;41.724;13.346;2022-08-07T02:35:04;96430.72;;;25.68;61.89
51123;BME280;37162;41.724;13.346;2022-08-07T02:37:34;96433.44;;;25.68;61.92
51123;BME280;37162;41.724;13.346;2022-08-07T02:40:02;96432.66;;;25.68;61.91
51123;BME280;37162;41.724;13.346;2022-08-07T02:42:30;96433.44;;;25.68;61.86
51123;BME280;37162;41.724;13.346;2022-08-07T02:44:57;96427.50;;;25.66;61.86
51123;BME280;37162;41.724;13.346;2022-08-07T02:47:24;96417.03;;;25.60;61.63
51123;BME280;37162;41.724;13.346;2022-08-07T02:49:50;96429.94;;;25.68;61.99
51123;BME280;37162;41.724;13.346;2022-08-07T02:52:22;96421.63;;;25.59;61.98
51123;BME280;37162;41.724;13.346;2022-08-07T02:54:49;96425.59;;;25.67;61.95
51123;BME280;37162;41.724;13.346;2022-08-07T02:57:17;96423.69;;;25.67;62.01
51123;BME280;37162;41.724;13.346;2022-08-07T02:59:47;96424.47;;;25.68;62.07
51123;BME280;37162;41.724;13.346;2022-08-07T03:02:15;96424.47;;;25.68;62.18
51123;BME280;37162;41.724;13.346;2022-08-07T03:04:43;96429.94;;;25.68;62.07
51123;BME280;37162;41.724;13.346;2022-08-07T03:07:10;96427.50;;;25.66;61.92
51123;BME280;37162;41.724;13.346;2022-08-07T03:09:36;96428.63;;;25.65;61.94
51123;BME280;37162;41.724;13.346;2022-08-07T03:12:03;96419.34;;;25.66;61.95
51123;BME280;37162;41.724;13.346;2022-08-07T03:14:30;96424.88;;;25.61;61.85
51123;BME280;37162;41.724;13.346;2022-08-07T03:16:56;96430.53;;;25.65;61.87
51123;BME280;37162;41.724;13.346;2022-08-07T03:19:23;96427.00;;;25.64;61.71
51123;BME280;37162;41.724;13.346;2022-08-07T03:21:49;96421.56;;;25.64;61.82
51123;BME280;37162;41.724;13.346;2022-08-07T03:24:15;96423.47;;;25.64;61.85
51123;BME280;37162;41.724;13.346;2022-08-07T03:26:42;96415.19;;;25.55;61.95
51123;BME280;37162;41.724;13.346;2022-08-07T03:29:10;96429.72;;;25.64;61.90
51123;BME280;37162;41.724;13.346;2022-08-07T03:31:37;96436.25;;;25.63;62.01
51123;BME280;37162;41.724;13.346;2022-08-07T03:34:05;96424.06;;;25.61;62.05
51123;BME280;37162;41.724;13.346;2022-08-07T03:36:32;96427.28;;;25.63;61.81
51123;BME280;37162;41.724;13.346;2022-08-07T03:39:02;96427.00;;;25.64;61.78
51123;BME280;37162;41.724;13.346;2022-08-07T03:41:29;96396.59;;;25.43;61.78
51123;BME280;37162;41.724;13.346;2022-08-07T03:43:56;96428.91;;;25.64;61.82
51123;BME280;37162;41.724;13.346;2022-08-07T03:46:22;96413.53;;;25.54;61.75
51123;BME280;37162;41.724;13.346;2022-08-07T03:48:49;96438.16;;;25.63;61.89
51123;BME280;37162;41.724;13.346;2022-08-07T03:51:15;96428.91;;;25.64;61.86
51123;BME280;37162;41.724;13.346;2022-08-07T03:53:41;96446.06;;;25.64;61.83
51123;BME280;37162;41.724;13.346;2022-08-07T03:56:09;96438.16;;;25.63;61.63
51123;BME280;37162;41.724;13.346;2022-08-07T03:58:35;96426.88;;;25.56;61.82
51123;BME280;37162;41.724;13.346;2022-08-07T04:01:02;96433.84;;;25.62;61.72
51123;BME280;37162;41.724;13.346;2022-08-07T04:03:28;96436.56;;;25.62;61.20
51123;BME280;37162;41.724;13.346;2022-08-07T04:05:54;96441.19;;;25.61;61.12
51123;BME280;37162;41.724;13.346;2022-08-07T04:08:20;96442.81;;;25.62;61.54
51123;BME280;37162;41.724;13.346;2022-08-07T04:10:46;96442.81;;;25.62;61.41
51123;BME280;37162;41.724;13.346;2022-08-07T04:13:16;96447.75;;;25.60;61.23
51123;BME280;37162;41.724;13.346;2022-08-07T04:15:43;96442.31;;;25.60;61.16
51123;BME280;37162;41.724;13.346;2022-08-07T04:18:12;96443.91;;;25.61;61.21
51123;BME280;37162;41.724;13.346;2022-08-07T04:20:38;96443.91;;;25.61;61.30
51123;BME280;37162;41.724;13.346;2022-08-07T04:23:04;96445.53;;;25.62;61.38
51123;BME280;37162;41.724;13.346;2022-08-07T04:25:30;96452.88;;;25.62;61.32
51123;BME280;37162;41.724;13.346;2022-08-07T04:27:55;96450.16;;;25.62;61.49
51123;BME280;37162;41.724;13.346;2022-08-07T04:30:21;96434.50;;;25.54;61.51
51123;BME280;37162;41.724;13.346;2022-08-07T04:32:47;96449.34;;;25.61;61.33
51123;BME280;37162;41.724;13.346;2022-08-07T04:35:13;96446.94;;;25.60;61.01
51123;BME280;37162;41.724;13.346;2022-08-07T04:37:39;96456.72;;;25.61;60.98
51123;BME280;37162;41.724;13.346;2022-08-07T04:40:05;96460.56;;;25.60;61.02
51123;BME280;37162;41.724;13.346;2022-08-07T04:42:30;96455.09;;;25.60;60.91
51123;BME280;37162;41.724;13.346;2022-08-07T04:45:00;96443.78;;;25.53;60.90
51123;BME280;37162;41.724;13.346;2022-08-07T04:50:11;96458.91;;;25.59;61.18
51123;BME280;37162;41.724;13.346;2022-08-07T04:52:57;96456.19;;;25.59;61.26
51123;BME280;37162;41.724;13.346;2022-08-07T04:55:35;96454.28;;;25.59;61.23
51123;BME280;37162;41.724;13.346;2022-08-07T04:58:18;96460.56;;;25.60;61.16
51123;BME280;37162;41.724;13.346;2022-08-07T05:00:54;96457.84;;;25.60;60.71
51123;BME280;37162;41.724;13.346;2022-08-07T05:03:29;96456.72;;;25.61;60.84
51123;BME280;37162;41.724;13.346;2022-08-07T05:06:01;96445.91;;;25.56;60.62
51123;BME280;37162;41.724;13.346;2022-08-07T05:08:44;96451.28;;;25.61;60.53
51123;BME280;37162;41.724;13.346;2022-08-07T05:11:15;96449.34;;;25.61;60.52
51123;BME280;37162;41.724;13.346;2022-08-07T05:16:42;96453.31;;;25.50;56.93
51123;BME280;37162;41.724;13.346;2022-08-07T05:19:14;96460.25;;;25.61;57.84
51123;BME280;37162;41.724;13.346;2022-08-07T05:21:48;96469.44;;;25.65;58.48
51123;BME280;37162;41.724;13.346;2022-08-07T05:24:16;96454.88;;;25.56;58.25
51123;BME280;37162;41.724;13.346;2022-08-07T05:26:43;96460.31;;;25.56;56.74
51123;BME280;37162;41.724;13.346;2022-08-07T05:29:13;96468.03;;;25.68;57.68
51123;BME280;37162;41.724;13.346;2022-08-07T05:31:40;96473.69;;;25.71;58.85
51123;BME280;37162;41.724;13.346;2022-08-07T05:34:10;96481.53;;;25.73;58.90
51123;BME280;37162;41.724;13.346;2022-08-07T05:36:42;96473.91;;;25.75;60.10
51123;BME280;37162;41.724;13.346;2022-08-07T05:39:09;96482.06;;;25.75;60.35
51123;BME280;37162;41.724;13.346;2022-08-07T05:41:37;96471.03;;;25.66;60.44
51123;BME280;37162;41.724;13.346;2022-08-07T05:44:03;96475.09;;;25.69;59.45
51123;BME280;37162;41.724;13.346;2022-08-07T05:46:29;96464.22;;;25.69;60.75
51123;BME280;37162;41.724;13.346;2022-08-07T05:48:55;96480.19;;;25.76;60.44
51123;BME280;37162;41.724;13.346;2022-08-07T05:51:22;96484.00;;;25.74;60.02
51123;BME280;37162;41.724;13.346;2022-08-07T05:53:48;96485.69;;;25.70;57.86
51123;BME280;37162;41.724;13.346;2022-08-07T05:56:16;96482.66;;;25.72;58.38
51123;BME280;37162;41.724;13.346;2022-08-07T05:58:42;96483.19;;;25.74;58.69
51123;BME280;37162;41.724;13.346;2022-08-07T06:01:11;96484.56;;;25.71;59.48
51123;BME280;37162;41.724;13.346;2022-08-07T06:03:38;96489.66;;;25.78;60.33
51123;BME280;37162;41.724;13.346;2022-08-07T06:06:06;96478.53;;;25.74;60.13
51123;BME280;37162;41.724;13.346;2022-08-07T06:08:32;96473.47;;;25.68;60.21
51123;BME280;37162;41.724;13.346;2022-08-07T06:10:58;96488.03;;;25.77;59.26
51123;BME280;37162;41.724;13.346;2022-08-07T06:13:24;96473.19;;;25.69;60.44
51123;BME280;37162;41.724;13.346;2022-08-07T06:15:50;96490.50;;;25.79;58.99
51123;BME280;37162;41.724;13.346;2022-08-07T06:18:19;96478.00;;;25.72;59.62
51123;BME280;37162;41.724;13.346;2022-08-07T06:20:45;96484.50;;;25.77;58.78
51123;BME280;37162;41.724;13.346;2022-08-07T06:23:12;96499.38;;;25.84;59.67
51123;BME280;37162;41.724;13.346;2022-08-07T06:25:40;96497.16;;;25.86;60.25
51123;BME280;37162;41.724;13.346;2022-08-07T06:28:09;96494.97;;;25.88;60.84
51123;BME280;37162;41.724;13.346;2022-08-07T06:30:37;96491.44;;;25.88;60.31
51123;BME280;37162;41.724;13.346;2022-08-07T06:33:04;96503.94;;;25.89;60.69
51123;BME280;37162;41.724;13.346;2022-08-07T06:35:30;96496.88;;;25.88;60.06
51123;BME280;37162;41.724;13.346;2022-08-07T06:37:55;96488.75;;;25.83;59.21
51123;BME280;37162;41.724;13.346;2022-08-07T06:40:23;96497.38;;;25.90;61.12
51123;BME280;37162;41.724;13.346;2022-08-07T06:42:49;96494.44;;;25.86;59.85
51123;BME280;37162;41.724;13.346;2022-08-07T06:45:17;96503.03;;;25.93;61.44
51123;BME280;37162;41.724;13.346;2022-08-07T06:47:45;96500.91;;;25.90;60.04
51123;BME280;37162;41.724;13.346;2022-08-07T06:50:11;96498.19;;;25.90;59.44
51123;BME280;37162;41.724;13.346;2022-08-07T06:52:38;96500.00;;;25.95;59.88
51123;BME280;37162;41.724;13.346;2022-08-07T06:55:32;96505.44;;;25.95;59.64
51123;BME280;37162;41.724;13.346;2022-08-07T06:58:00;96500.22;;;25.98;60.99
51123;BME280;37162;41.724;13.346;2022-08-07T07:00:31;96498.31;;;25.99;61.40
51123;BME280;37162;41.724;13.346;2022-08-07T07:02:58;96490.50;;;25.92;61.24
51123;BME280;37162;41.724;13.346;2022-08-07T07:05:25;96495.69;;;25.94;60.10
51123;BME280;37162;41.724;13.346;2022-08-07T07:07:53;96495.38;;;25.95;59.44
51123;BME280;37162;41.724;13.346;2022-08-07T07:10:30;96499.03;;;26.05;61.17
51123;BME280;37162;41.724;13.346;2022-08-07T07:13:13;96497.72;;;26.02;61.21
51123;BME280;37162;41.724;13.346;2022-08-07T07:15:48;96487.63;;;26.03;61.32
51123;BME280;37162;41.724;13.346;2022-08-07T07:20:51;96489.56;;;26.02;61.68
51123;BME280;37162;41.724;13.346;2022-08-07T07:23:18;96496.41;;;25.99;61.12
51123;BME280;37162;41.724;13.346;2022-08-07T07:25:46;96487.41;;;25.99;61.40
51123;BME280;37162;41.724;13.346;2022-08-07T07:28:22;96498.81;;;26.01;61.21
51123;BME280;37162;41.724;13.346;2022-08-07T07:30:54;96486.00;;;26.02;61.36
51123;BME280;37162;41.724;13.346;2022-08-07T07:33:21;96486.84;;;26.02;61.62
51123;BME280;37162;41.724;13.346;2022-08-07T07:35:49;96489.03;;;26.00;59.89
51123;BME280;37162;41.724;13.346;2022-08-07T07:38:18;96490.56;;;26.06;61.12
51123;BME280;37162;41.724;13.346;2022-08-07T07:40:47;96488.13;;;26.05;60.12
51123;BME280;37162;41.724;13.346;2022-08-07T07:43:14;96486.44;;;26.09;61.28
51123;BME280;37162;41.724;13.346;2022-08-07T07:45:41;96486.44;;;26.09;61.29
51123;BME280;37162;41.724;13.346;2022-08-07T07:48:09;96493.81;;;26.08;60.40
51123;BME280;37162;41.724;13.346;2022-08-07T07:50:38;96487.78;;;26.11;61.18
51123;BME280;37162;41.724;13.346;2022-08-07T07:53:07;96489.97;;;26.09;60.17
51123;BME280;37162;41.724;13.346;2022-08-07T07:55:33;96477.78;;;26.07;61.00
51123;BME280;37162;41.724;13.346;2022-08-07T07:58:00;96485.84;;;26.12;61.18
51123;BME280;37162;41.724;13.346;2022-08-07T08:00:27;96487.78;;;26.11;61.11
51123;BME280;37162;41.724;13.346;2022-08-07T08:02:57;96489.66;;;26.11;61.34
51123;BME280;37162;41.724;13.346;2022-08-07T08:05:23;96476.75;;;26.03;61.56
51123;BME280;37162;41.724;13.346;2022-08-07T08:07:49;96486.13;;;26.10;61.24
51123;BME280;37162;41.724;13.346;2022-08-07T08:10:16;96490.78;;;26.10;61.51
51123;BME280;37162;41.724;13.346;2022-08-07T08:12:44;96490.50;;;26.11;61.48
51123;BME280;37162;41.724;13.346;2022-08-07T08:15:10;96490.50;;;26.11;61.45
51123;BME280;37162;41.724;13.346;2022-08-07T08:17:36;96489.38;;;26.12;61.22
51123;BME280;37162;41.724;13.346;2022-08-07T08:20:04;96488.25;;;26.13;61.19
51123;BME280;37162;41.724;13.346;2022-08-07T08:22:37;96485.06;;;26.11;61.16
51123;BME280;37162;41.724;13.346;2022-08-07T08:25:25;96487.69;;;26.16;61.31
51123;BME280;37162;41.724;13.346;2022-08-07T08:28:14;96493.13;;;26.16;61.36
51123;BME280;37162;41.724;13.346;2022-08-07T08:30:42;96481.00;;;26.09;61.68
51123;BME280;37162;41.724;13.346;2022-08-07T08:33:11;96493.13;;;26.16;60.88
51123;BME280;37162;41.724;13.346;2022-08-07T08:35:46;96473.53;;;26.14;61.15
51123;BME280;37162;41.724;13.346;2022-08-07T08:38:13;96482.94;;;26.22;61.22
51123;BME280;37162;41.724;13.346;2022-08-07T08:40:45;96480.72;;;26.24;61.26
51123;BME280;37162;41.724;13.346;2022-08-07T08:43:19;96484.25;;;26.24;61.33
51123;BME280;37162;41.724;13.346;2022-08-07T08:45:51;96470.22;;;26.17;61.02
51123;BME280;37162;41.724;13.346;2022-08-07T08:48:24;96478.53;;;26.26;61.41
51123;BME280;37162;41.724;13.346;2022-08-07T08:50:59;96480.13;;;26.27;61.18
51123;BME280;37162;41.724;13.346;2022-08-07T08:53:35;96473.06;;;26.26;61.50
51123;BME280;37162;41.724;13.346;2022-08-07T08:56:08;96475.97;;;26.30;61.32
51123;BME280;37162;41.724;13.346;2022-08-07T08:59:06;96489.81;;;26.33;61.33
51123;BME280;37162;41.724;13.346;2022-08-07T09:01:43;96482.16;;;26.35;61.25
51123;BME280;37162;41.724;13.346;2022-08-07T09:07:07;96478.81;;;26.38;61.05
51123;BME280;37162;41.724;13.346;2022-08-07T09:10:03;96480.16;;;26.41;61.39
51123;BME280;37162;41.724;13.346;2022-08-07T09:12:46;96470.59;;;26.43;61.02
51123;BME280;37162;41.724;13.346;2022-08-07T09:24:03;96476.94;;;26.53;60.89
51123;BME280;37162;41.724;13.346;2022-08-07T09:27:18;96475.84;;;26.54;61.04
51123;BME280;37162;41.724;13.346;2022-08-07T09:32:59;96474.13;;;26.58;60.99
51123;BME280;37162;41.724;13.346;2022-08-07T09:40:41;96472.94;;;26.64;60.52
51123;BME280;37162;41.724;13.346;2022-08-07T09:43:35;96466.88;;;26.67;60.52
51123;BME280;37162;41.724;13.346;2022-08-07T09:46:21;96471.22;;;26.68;60.26
51123;BME280;37162;41.724;13.346;2022-08-07T09:48:57;96464.34;;;26.70;60.31
51123;BME280;37162;41.724;13.346;2022-08-07T09:51:58;96467.59;;;26.72;60.48
51123;BME280;37162;41.724;13.346;2022-08-07T09:57:48;96461.50;;;26.75;60.20
51123;BME280;37162;41.724;13.346;2022-08-07T10:00:26;96460.91;;;26.79;60.18
51123;BME280;37162;41.724;13.346;2022-08-07T10:27:25;96451.63;;;27.43;57.48
51123;BME280;37162;41.724;13.346;2022-08-07T10:30:06;96450.00;;;27.42;57.80
51123;BME280;37162;41.724;13.346;2022-08-07T10:40:46;96444.69;;;27.23;58.17
51123;BME280;37162;41.724;13.346;2022-08-07T10:43:43;96442.59;;;27.20;58.42
51123;BME280;37162;41.724;13.346;2022-08-07T10:46:18;96439.88;;;27.20;58.32
51123;BME280;37162;41.724;13.346;2022-08-07T10:51:27;96442.09;;;27.18;58.18
51123;BME280;37162;41.724;13.346;2022-08-07T10:54:10;96436.94;;;27.17;58.48
51123;BME280;37162;41.724;13.346;2022-08-07T10:56:58;96434.22;;;27.17;58.12
51123;BME280;37162;41.724;13.346;2022-08-07T11:02:20;96434.22;;;27.17;58.35
51123;BME280;37162;41.724;13.346;2022-08-07T11:07:58;96429.56;;;27.17;58.24
51123;BME280;37162;41.724;13.346;2022-08-07T11:10:46;96426.03;;;27.17;58.12
51123;BME280;37162;41.724;13.346;2022-08-07T11:13:33;96426.03;;;27.17;58.08
51123;BME280;37162;41.724;13.346;2022-08-07T11:16:05;96427.66;;;27.18;58.05
51123;BME280;37162;41.724;13.346;2022-08-07T11:18:45;96418.66;;;27.17;57.92
51123;BME280;37162;41.724;13.346;2022-08-07T11:21:32;96422.19;;;27.18;58.06
51123;BME280;37162;41.724;13.346;2022-08-07T11:24:19;96411.28;;;27.18;58.17
51123;BME280;37162;41.724;13.346;2022-08-07T11:27:09;96411.28;;;27.18;58.00
51123;BME280;37162;41.724;13.346;2022-08-07T11:29:42;96408.06;;;27.16;58.13
51123;BME280;37162;41.724;13.346;2022-08-07T11:32:15;96423.00;;;27.18;57.88
51123;BME280;37162;41.724;13.346;2022-08-07T11:34:58;96418.88;;;27.21;57.45
51123;BME280;37162;41.724;13.346;2022-08-07T11:52:04;96378.88;;;27.16;57.69
51123;BME280;37162;41.724;13.346;2022-08-07T12:07:44;96372.09;;;27.14;57.42
51123;BME280;37162;41.724;13.346;2022-08-07T12:10:18;96372.09;;;27.14;57.20
51123;BME280;37162;41.724;13.346;2022-08-07T12:15:27;96365.84;;;27.13;57.51
51123;BME280;37162;41.724;13.346;2022-08-07T12:18:06;96362.31;;;27.13;57.50
51123;BME280;37162;41.724;13.346;2022-08-07T12:20:49;96355.84;;;27.09;57.25
51123;BME280;37162;41.724;13.346;2022-08-07T12:26:47;96346.25;;;27.11;57.26
51123;BME280;37162;41.724;13.346;2022-08-07T12:29:32;96342.75;;;27.11;57.02
51123;BME280;37162;41.724;13.346;2022-08-07T12:32:04;96340.00;;;27.11;57.35
51123;BME280;37162;41.724;13.346;2022-08-07T12:34:38;96341.09;;;27.10;56.94
51123;BME280;37162;41.724;13.346;2022-08-07T12:37:06;96343.81;;;27.10;57.07
51123;BME280;37162;41.724;13.346;2022-08-07T12:39:34;96330.50;;;27.08;57.08
51123;BME280;37162;41.724;13.346;2022-08-07T12:42:02;96333.25;;;27.08;57.13
51123;BME280;37162;41.724;13.346;2022-08-07T12:44:30;96330.78;;;27.07;57.17
51123;BME280;37162;41.724;13.346;2022-08-07T12:47:15;96330.50;;;27.08;56.93
51123;BME280;37162;41.724;13.346;2022-08-07T12:52:59;96325.63;;;27.05;56.90
51123;BME280;37162;41.724;13.346;2022-08-07T12:55:35;96318.88;;;27.02;57.07
51123;BME280;37162;41.724;13.346;2022-08-07T12:58:04;96324.94;;;26.99;57.27
51123;BME280;37162;41.724;13.346;2022-08-07T13:03:30;96325.28;;;26.98;56.89
51123;BME280;37162;41.724;13.346;2022-08-07T13:06:57;96322.03;;;26.96;57.13
51123;BME280;37162;41.724;13.346;2022-08-07T16:50:25;96459.63;;;26.30;58.20
51123;BME280;37162;41.724;13.346;2022-08-07T16:58:53;96498.38;;;26.27;59.17
51123;BME280;37162;41.724;13.346;2022-08-07T17:02:02;96497.88;;;26.24;59.25
51123;BME280;37162;41.724;13.346;2022-08-07T17:04:38;96490.31;;;26.21;58.97
51123;BME280;37162;41.724;13.346;2022-08-07T17:07:22;96476.97;;;26.20;58.20
51123;BME280;37162;41.724;13.346;2022-08-07T17:10:04;96480.72;;;26.24;58.36
51123;BME280;37162;41.724;13.346;2022-08-07T17:12:53;96484.34;;;26.19;58.18
51123;BME280;37162;41.724;13.346;2022-08-07T17:15:46;96498.16;;;26.23;59.20
51123;BME280;37162;41.724;13.346;2022-08-07T17:18:28;96503.94;;;26.21;59.41
51123;BME280;37162;41.724;13.346;2022-08-07T17:20:56;96486.56;;;26.17;59.52
51123;BME280;37162;41.724;13.346;2022-08-07T17:26:17;96478.09;;;26.19;59.21
51123;BME280;37162;41.724;13.346;2022-08-07T17:34:17;96488.47;;;26.17;58.41
51123;BME280;37162;41.724;13.346;2022-08-07T17:36:49;96480.00;;;26.18;57.83
51123;BME280;37162;41.724;13.346;2022-08-07T17:42:06;96469.41;;;26.17;57.29
51123;BME280;37162;41.724;13.346;2022-08-07T17:44:45;96466.88;;;26.20;58.66
51123;BME280;37162;41.724;13.346;2022-08-07T17:49:56;96456.63;;;26.17;58.08
51123;BME280;37162;41.724;13.346;2022-08-07T17:55:11;96461.75;;;26.19;58.84
51123;BME280;37162;41.724;13.346;2022-08-07T17:57:49;96465.59;;;26.18;59.59
51123;BME280;37162;41.724;13.346;2022-08-07T18:00:24;96477.59;;;26.17;59.69
51123;BME280;37162;41.724;13.346;2022-08-07T18:03:12;96496.44;;;26.13;58.14
51123;BME280;37162;41.724;13.346;2022-08-07T18:08:41;96561.22;;;26.16;59.48
51123;BME280;37162;41.724;13.346;2022-08-07T18:16:11;96552.19;;;26.16;59.78
51123;BME280;37162;41.724;13.346;2022-08-07T18:18:45;96541.94;;;26.13;58.99
51123;BME280;37162;41.724;13.346;2022-08-07T18:21:21;96532.16;;;26.12;58.90
51123;BME280;37162;41.724;13.346;2022-08-07T18:34:52;96538.97;;;26.09;57.85
51123;BME280;37162;41.724;13.346;2022-08-07T18:37:36;96511.25;;;26.07;56.93
51123;BME280;37162;41.724;13.346;2022-08-07T18:43:09;96515.28;;;26.10;57.77
51123;BME280;37162;41.724;13.346;2022-08-07T18:48:07;96528.63;;;26.11;59.31
51123;BME280;37162;41.724;13.346;2022-08-07T18:59:02;96516.38;;;26.09;59.77
51123;BME280;37162;41.724;13.346;2022-08-07T19:04:24;96494.13;;;26.07;59.90
51123;BME280;37162;41.724;13.346;2022-08-07T19:07:00;96494.13;;;26.07;59.90
51123;BME280;37162;41.724;13.346;2022-08-07T19:09:41;96491.38;;;26.07;59.90
51123;BME280;37162;41.724;13.346;2022-08-07T19:12:19;96493.28;;;26.06;59.95
51123;BME280;37162;41.724;13.346;2022-08-07T19:17:36;96495.19;;;26.06;59.41
51123;BME280;37162;41.724;13.346;2022-08-07T19:20:15;96490.88;;;26.05;59.30
51123;BME280;37162;41.724;13.346;2022-08-07T19:25:39;96500.72;;;26.00;58.80
51123;BME280;37162;41.724;13.346;2022-08-07T19:28:21;96506.97;;;26.01;59.20
51123;BME280;37162;41.724;13.346;2022-08-07T19:30:50;96516.56;;;25.98;59.32
51123;BME280;37162;41.724;13.346;2022-08-07T19:33:19;96492.72;;;25.90;59.38
51123;BME280;37162;41.724;13.346;2022-08-07T19:35:54;96500.50;;;25.97;59.75
51123;BME280;37162;41.724;13.346;2022-08-07T19:38:26;96488.31;;;25.94;59.97
51123;BME280;37162;41.724;13.346;2022-08-07T19:40:57;96488.91;;;25.91;59.77
51123;BME280;37162;41.724;13.346;2022-08-07T19:43:26;96495.69;;;25.94;59.67
51123;BME280;37162;41.724;13.346;2022-08-07T19:45:55;96484.16;;;25.83;59.75
51123;BME280;37162;41.724;13.346;2022-08-07T19:48:43;96506.84;;;25.92;59.66